sensor_id;sensor_type;location;lat;lon;timestamp;pressure;altitude;pressure_sealevel;temperature;humidity
2711;BME280;20721;47.402;8.550;2023-04-08T00:00:40;96331;;;8.86;55.32
2711;BME280;20721;47.402;8.550;2023-04-08T00:01:41;96329;;;8.84;55.33
2711;BME280;20721;47.402;8.550;2023-04-08T00:02:41;96331;;;8.82;55.42
2711;BME280;20721;47.402;8.550;2023-04-08T00:05:40;96330;;;8.80;55.61
2711;BME280;20721;47.402;8.550;2023-04-08T00:08:40;96332;;;8.81;55.55
2711;BME280;20721;47.402;8.550;2023-04-08T00:09:41;96332;;;8.82;55.65
2711;BME280;20721;47.402;8.550;2023-04-08T00:11:41;96331;;;8.81;55.68
2711;BME280;20721;47.402;8.550;2023-04-08T00:12:40;96329;;;8.79;55.73
2711;BME280;20721;47.402;8.550;2023-04-08T00:13:40;96329;;;8.80;55.63
2711;BME280;20721;47.402;8.550;2023-04-08T00:14:40;96332;;;8.82;55.66
2711;BME280;20721;47.402;8.550;2023-04-08T00:15:40;96330;;;8.81;55.71
2711;BME280;20721;47.402;8.550;2023-04-08T00:16:40;96330;;;8.82;55.58
2711;BME280;20721;47.402;8.550;2023-04-08T00:17:41;96329;;;8.81;55.57
2711;BME280;20721;47.402;8.550;2023-04-08T00:18:41;96327;;;8.80;55.75
2711;BME280;20721;47.402;8.550;2023-04-08T00:20:41;96329;;;8.79;55.70
2711;BME280;20721;47.402;8.550;2023-04-08T00:21:41;96327;;;8.72;55.81
2711;BME280;20721;47.402;8.550;2023-04-08T00:22:40;96327;;;8.65;56.01
2711;BME280;20721;47.402;8.550;2023-04-08T00:23:40;96328;;;8.59;56.23
2711;BME280;20721;47.402;8.550;2023-04-08T00:24:40;96326;;;8.54;56.42
2711;BME280;20721;47.402;8.550;2023-04-08T00:25:40;96326;;;8.52;56.53
2711;BME280;20721;47.402;8.550;2023-04-08T00:26:40;96327;;;8.54;56.59
2711;BME280;20721;47.402;8.550;2023-04-08T00:27:40;96327;;;8.53;56.53
2711;BME280;20721;47.402;8.550;2023-04-08T00:28:42;96326;;;8.49;56.66
2711;BME280;20721;47.402;8.550;2023-04-08T00:29:40;96329;;;8.51;56.55
2711;BME280;20721;47.402;8.550;2023-04-08T00:30:40;96329;;;8.48;56.78
2711;BME280;20721;47.402;8.550;2023-04-08T00:31:41;96328;;;8.44;56.79
2711;BME280;20721;47.402;8.550;2023-04-08T00:32:40;96329;;;8.45;56.66
2711;BME280;20721;47.402;8.550;2023-04-08T00:33:41;96327;;;8.46;56.76
2711;BME280;20721;47.402;8.550;2023-04-08T00:34:43;96329;;;8.48;56.65
2711;BME280;20721;47.402;8.550;2023-04-08T00:35:41;96330;;;8.49;56.52
2711;BME280;20721;47.402;8.550;2023-04-08T00:36:40;96324;;;8.35;56.73
2711;BME280;20721;47.402;8.550;2023-04-08T00:37:41;96321;;;8.30;56.94
2711;BME280;20721;47.402;8.550;2023-04-08T00:38:40;96323;;;8.29;57.14
2711;BME280;20721;47.402;8.550;2023-04-08T00:40:40;96321;;;8.34;57.08
2711;BME280;20721;47.402;8.550;2023-04-08T00:41:40;96323;;;8.40;57.03
2711;BME280;20721;47.402;8.550;2023-04-08T00:42:41;96323;;;8.46;56.94
2711;BME280;20721;47.402;8.550;2023-04-08T00:43:40;96326;;;8.53;56.70
2711;BME280;20721;47.402;8.550;2023-04-08T00:44:40;96324;;;8.58;56.60
2711;BME280;20721;47.402;8.550;2023-04-08T00:45:41;96325;;;8.65;56.47
2711;BME280;20721;47.402;8.550;2023-04-08T00:46:41;96326;;;8.67;56.25
2711;BME280;20721;47.402;8.550;2023-04-08T00:47:41;96327;;;8.70;56.25
2711;BME280;20721;47.402;8.550;2023-04-08T00:48:40;96324;;;8.71;56.07
2711;BME280;20721;47.402;8.550;2023-04-08T00:49:41;96324;;;8.68;55.90
2711;BME280;20721;47.402;8.550;2023-04-08T00:51:40;96327;;;8.69;56.10
2711;BME280;20721;47.402;8.550;2023-04-08T00:52:40;96326;;;8.70;55.94
2711;BME280;20721;47.402;8.550;2023-04-08T00:53:40;96326;;;8.71;56.01
2711;BME280;20721;47.402;8.550;2023-04-08T00:54:41;96326;;;8.68;56.13
2711;BME280;20721;47.402;8.550;2023-04-08T00:55:41;96322;;;8.66;56.15
2711;BME280;20721;47.402;8.550;2023-04-08T00:56:40;96323;;;8.70;56.18
2711;BME280;20721;47.402;8.550;2023-04-08T00:57:40;96319;;;8.72;56.13
2711;BME280;20721;47.402;8.550;2023-04-08T00:58:40;96320;;;8.73;56.21
2711;BME280;20721;47.402;8.550;2023-04-08T00:59:41;96314;;;8.76;56.08
2711;BME280;20721;47.402;8.550;2023-04-08T01:00:43;96317;;;8.80;55.95
2711;BME280;20721;47.402;8.550;2023-04-08T01:02:46;96317;;;8.87;55.77
2711;BME280;20721;47.402;8.550;2023-04-08T01:03:43;96317;;;8.90;55.55
2711;BME280;20721;47.402;8.550;2023-04-08T01:05:45;96316;;;8.96;55.39
2711;BME280;20721;47.402;8.550;2023-04-08T01:06:45;96315;;;8.98;55.36
2711;BME280;20721;47.402;8.550;2023-04-08T01:07:44;96315;;;8.99;55.37
2711;BME280;20721;47.402;8.550;2023-04-08T01:08:41;96316;;;9.00;55.18
2711;BME280;20721;47.402;8.550;2023-04-08T01:09:43;96316;;;8.99;55.12
2711;BME280;20721;47.402;8.550;2023-04-08T01:10:43;96316;;;8.98;55.16
2711;BME280;20721;47.402;8.550;2023-04-08T01:13:41;96319;;;8.96;55.23
2711;BME280;20721;47.402;8.550;2023-04-08T01:14:41;96318;;;8.94;55.09
2711;BME280;20721;47.402;8.550;2023-04-08T01:16:41;96317;;;8.92;55.25
2711;BME280;20721;47.402;8.550;2023-04-08T01:18:41;96321;;;8.91;55.28
2711;BME280;20721;47.402;8.550;2023-04-08T01:19:41;96319;;;8.92;55.36
2711;BME280;20721;47.402;8.550;2023-04-08T01:20:41;96319;;;8.94;55.42
2711;BME280;20721;47.402;8.550;2023-04-08T01:21:41;96319;;;8.97;55.40
2711;BME280;20721;47.402;8.550;2023-04-08T01:23:45;96317;;;9.04;55.38
2711;BME280;20721;47.402;8.550;2023-04-08T01:24:42;96314;;;9.07;55.28
2711;BME280;20721;47.402;8.550;2023-04-08T01:25:45;96317;;;9.11;55.21
2711;BME280;20721;47.402;8.550;2023-04-08T01:26:41;96314;;;9.13;55.12
2711;BME280;20721;47.402;8.550;2023-04-08T01:27:42;96315;;;9.14;55.08
2711;BME280;20721;47.402;8.550;2023-04-08T01:28:42;96316;;;9.16;55.01
2711;BME280;20721;47.402;8.550;2023-04-08T01:29:41;96316;;;9.17;54.96
2711;BME280;20721;47.402;8.550;2023-04-08T01:30:41;96319;;;9.20;54.88
2711;BME280;20721;47.402;8.550;2023-04-08T01:31:41;96318;;;9.22;54.80
2711;BME280;20721;47.402;8.550;2023-04-08T01:32:41;96316;;;9.21;54.75
2711;BME280;20721;47.402;8.550;2023-04-08T01:34:41;96319;;;9.18;54.74
2711;BME280;20721;47.402;8.550;2023-04-08T01:36:41;96319;;;9.17;54.76
2711;BME280;20721;47.402;8.550;2023-04-08T01:37:41;96316;;;9.15;54.73
2711;BME280;20721;47.402;8.550;2023-04-08T01:38:41;96314;;;9.14;54.77
2711;BME280;20721;47.402;8.550;2023-04-08T01:39:41;96316;;;9.13;54.85
2711;BME280;20721;47.402;8.550;2023-04-08T01:40:41;96313;;;9.11;54.97
2711;BME280;20721;47.402;8.550;2023-04-08T01:41:41;96314;;;9.08;55.01
2711;BME280;20721;47.402;8.550;2023-04-08T01:42:41;96316;;;9.06;54.88
2711;BME280;20721;47.402;8.550;2023-04-08T01:43:41;96312;;;9.05;54.98
2711;BME280;20721;47.402;8.550;2023-04-08T01:44:41;96315;;;9.06;55.01
2711;BME280;20721;47.402;8.550;2023-04-08T01:45:42;96314;;;9.08;54.95
2711;BME280;20721;47.402;8.550;2023-04-08T01:46:41;96314;;;9.09;54.97
2711;BME280;20721;47.402;8.550;2023-04-08T01:47:41;96313;;;9.10;55.29
2711;BME280;20721;47.402;8.550;2023-04-08T01:48:43;96316;;;9.12;55.15
2711;BME280;20721;47.402;8.550;2023-04-08T01:49:41;96316;;;9.11;55.11
2711;BME280;20721;47.402;8.550;2023-04-08T01:50:41;96316;;;9.13;55.14
2711;BME280;20721;47.402;8.550;2023-04-08T01:51:41;96315;;;9.16;55.10
2711;BME280;20721;47.402;8.550;2023-04-08T01:54:41;96310;;;9.17;54.91
2711;BME280;20721;47.402;8.550;2023-04-08T01:55:41;96311;;;9.18;54.93
2711;BME280;20721;47.402;8.550;2023-04-08T01:56:41;96312;;;9.16;54.97
2711;BME280;20721;47.402;8.550;2023-04-08T01:58:41;96311;;;9.17;54.94
2711;BME280;20721;47.402;8.550;2023-04-08T01:59:41;96311;;;9.19;54.84
2711;BME280;20721;47.402;8.550;2023-04-08T02:00:42;96313;;;9.22;54.88
2711;BME280;20721;47.402;8.550;2023-04-08T02:02:41;96309;;;9.21;54.81
2711;BME280;20721;47.402;8.550;2023-04-08T02:03:41;96314;;;9.22;54.84
2711;BME280;20721;47.402;8.550;2023-04-08T02:04:41;96313;;;9.20;54.95
2711;BME280;20721;47.402;8.550;2023-04-08T02:05:41;96316;;;9.22;55.07
2711;BME280;20721;47.402;8.550;2023-04-08T02:06:41;96316;;;9.23;55.01
2711;BME280;20721;47.402;8.550;2023-04-08T02:08:41;96320;;;9.24;54.86
2711;BME280;20721;47.402;8.550;2023-04-08T02:09:41;96317;;;9.25;54.89
2711;BME280;20721;47.402;8.550;2023-04-08T02:10:41;96318;;;9.26;54.95
2711;BME280;20721;47.402;8.550;2023-04-08T02:11:41;96320;;;9.25;54.89
2711;BME280;20721;47.402;8.550;2023-04-08T02:14:41;96321;;;9.27;54.93
2711;BME280;20721;47.402;8.550;2023-04-08T02:16:42;96323;;;9.26;54.83
2711;BME280;20721;47.402;8.550;2023-04-08T02:17:43;96319;;;9.22;54.65
2711;BME280;20721;47.402;8.550;2023-04-08T02:18:42;96324;;;9.25;54.46
2711;BME280;20721;47.402;8.550;2023-04-08T02:20:42;96321;;;9.24;54.74
2711;BME280;20721;47.402;8.550;2023-04-08T02:23:41;96327;;;9.22;54.87
2711;BME280;20721;47.402;8.550;2023-04-08T02:24:41;96324;;;9.23;54.90
2711;BME280;20721;47.402;8.550;2023-04-08T02:25:44;96323;;;9.24;54.87
2711;BME280;20721;47.402;8.550;2023-04-08T02:26:41;96324;;;9.25;54.89
2711;BME280;20721;47.402;8.550;2023-04-08T02:27:41;96324;;;9.26;54.81
2711;BME280;20721;47.402;8.550;2023-04-08T02:28:41;96322;;;9.23;55.01
2711;BME280;20721;47.402;8.550;2023-04-08T02:30:42;96327;;;9.20;55.20
2711;BME280;20721;47.402;8.550;2023-04-08T02:32:41;96325;;;9.17;55.24
2711;BME280;20721;47.402;8.550;2023-04-08T02:33:41;96322;;;9.15;55.48
2711;BME280;20721;47.402;8.550;2023-04-08T02:34:41;96325;;;9.16;55.24
2711;BME280;20721;47.402;8.550;2023-04-08T02:36:44;96325;;;9.15;55.39
2711;BME280;20721;47.402;8.550;2023-04-08T02:37:41;96323;;;9.14;55.43
2711;BME280;20721;47.402;8.550;2023-04-08T02:38:41;96321;;;9.15;55.40
2711;BME280;20721;47.402;8.550;2023-04-08T02:39:41;96322;;;9.17;55.42
2711;BME280;20721;47.402;8.550;2023-04-08T02:40:41;96321;;;9.16;55.41
2711;BME280;20721;47.402;8.550;2023-04-08T02:42:41;96323;;;9.18;55.47
2711;BME280;20721;47.402;8.550;2023-04-08T02:43:41;96323;;;9.19;55.46
2711;BME280;20721;47.402;8.550;2023-04-08T02:44:41;96325;;;9.20;55.34
2711;BME280;20721;47.402;8.550;2023-04-08T02:45:41;96323;;;9.19;55.38
2711;BME280;20721;47.402;8.550;2023-04-08T02:46:41;96324;;;9.18;55.46
2711;BME280;20721;47.402;8.550;2023-04-08T02:47:41;96326;;;9.17;55.50
2711;BME280;20721;47.402;8.550;2023-04-08T02:48:41;96324;;;9.20;55.52
2711;BME280;20721;47.402;8.550;2023-04-08T02:49:41;96326;;;9.19;55.46
2711;BME280;20721;47.402;8.550;2023-04-08T02:50:41;96326;;;9.18;55.42
2711;BME280;20721;47.402;8.550;2023-04-08T02:51:41;96327;;;9.17;55.56
2711;BME280;20721;47.402;8.550;2023-04-08T02:54:41;96326;;;9.18;55.61
2711;BME280;20721;47.402;8.550;2023-04-08T02:55:41;96325;;;9.19;55.62
2711;BME280;20721;47.402;8.550;2023-04-08T02:58:41;96323;;;9.18;55.60
2711;BME280;20721;47.402;8.550;2023-04-08T02:59:41;96322;;;9.17;55.67
2711;BME280;20721;47.402;8.550;2023-04-08T03:00:41;96319;;;9.16;55.67
2711;BME280;20721;47.402;8.550;2023-04-08T03:03:41;96323;;;9.17;55.72
2711;BME280;20721;47.402;8.550;2023-04-08T03:04:41;96320;;;9.18;55.73
2711;BME280;20721;47.402;8.550;2023-04-08T03:05:41;96326;;;9.19;55.69
2711;BME280;20721;47.402;8.550;2023-04-08T03:06:41;96324;;;9.20;55.65
2711;BME280;20721;47.402;8.550;2023-04-08T03:08:41;96322;;;9.21;55.57
2711;BME280;20721;47.402;8.550;2023-04-08T03:09:41;96320;;;9.22;55.57
2711;BME280;20721;47.402;8.550;2023-04-08T03:10:41;96323;;;9.23;55.54
2711;BME280;20721;47.402;8.550;2023-04-08T03:11:41;96320;;;9.24;55.50
2711;BME280;20721;47.402;8.550;2023-04-08T03:12:41;96324;;;9.26;55.46
2711;BME280;20721;47.402;8.550;2023-04-08T03:13:41;96325;;;9.25;55.45
2711;BME280;20721;47.402;8.550;2023-04-08T03:14:41;96323;;;9.26;55.53
2711;BME280;20721;47.402;8.550;2023-04-08T03:16:41;96321;;;9.28;55.57
2711;BME280;20721;47.402;8.550;2023-04-08T03:19:41;96327;;;9.29;55.45
2711;BME280;20721;47.402;8.550;2023-04-08T03:22:41;96330;;;9.28;55.49
2711;BME280;20721;47.402;8.550;2023-04-08T03:23:41;96329;;;9.26;55.76
2711;BME280;20721;47.402;8.550;2023-04-08T03:25:41;96331;;;9.29;55.85
2711;BME280;20721;47.402;8.550;2023-04-08T03:27:43;96333;;;9.27;55.97
2711;BME280;20721;47.402;8.550;2023-04-08T03:28:41;96334;;;9.26;56.12
2711;BME280;20721;47.402;8.550;2023-04-08T03:29:41;96332;;;9.22;56.23
2711;BME280;20721;47.402;8.550;2023-04-08T03:30:41;96333;;;9.20;56.24
2711;BME280;20721;47.402;8.550;2023-04-08T03:31:41;96334;;;9.21;56.22
2711;BME280;20721;47.402;8.550;2023-04-08T03:32:41;96332;;;9.19;56.26
2711;BME280;20721;47.402;8.550;2023-04-08T03:33:41;96335;;;9.16;56.32
2711;BME280;20721;47.402;8.550;2023-04-08T03:35:41;96334;;;9.15;56.36
2711;BME280;20721;47.402;8.550;2023-04-08T03:36:41;96339;;;9.12;56.41
2711;BME280;20721;47.402;8.550;2023-04-08T03:37:41;96335;;;9.13;56.46
2711;BME280;20721;47.402;8.550;2023-04-08T03:38:41;96340;;;9.16;56.49
2711;BME280;20721;47.402;8.550;2023-04-08T03:39:44;96337;;;9.18;56.48
2711;BME280;20721;47.402;8.550;2023-04-08T03:41:41;96337;;;9.16;56.41
2711;BME280;20721;47.402;8.550;2023-04-08T03:42:41;96337;;;9.14;56.58
2711;BME280;20721;47.402;8.550;2023-04-08T03:43:41;96338;;;9.16;56.45
2711;BME280;20721;47.402;8.550;2023-04-08T03:44:41;96336;;;9.15;56.50
2711;BME280;20721;47.402;8.550;2023-04-08T03:45:41;96334;;;9.13;56.59
2711;BME280;20721;47.402;8.550;2023-04-08T03:47:41;96336;;;9.09;56.59
2711;BME280;20721;47.402;8.550;2023-04-08T03:48:41;96340;;;9.10;56.63
2711;BME280;20721;47.402;8.550;2023-04-08T03:49:41;96337;;;9.11;56.68
2711;BME280;20721;47.402;8.550;2023-04-08T03:51:41;96336;;;9.12;56.72
2711;BME280;20721;47.402;8.550;2023-04-08T03:53:41;96339;;;9.13;56.66
2711;BME280;20721;47.402;8.550;2023-04-08T03:55:41;96335;;;9.11;56.58
2711;BME280;20721;47.402;8.550;2023-04-08T03:56:41;96336;;;9.09;56.59
2711;BME280;20721;47.402;8.550;2023-04-08T03:57:42;96336;;;9.10;56.60
2711;BME280;20721;47.402;8.550;2023-04-08T03:58:41;96334;;;9.09;56.59
2711;BME280;20721;47.402;8.550;2023-04-08T03:59:41;96334;;;9.04;56.56
2711;BME280;20721;47.402;8.550;2023-04-08T04:00:41;96332;;;8.98;56.86
2711;BME280;20721;47.402;8.550;2023-04-08T04:01:42;96332;;;8.86;57.10
2711;BME280;20721;47.402;8.550;2023-04-08T04:02:41;96328;;;8.74;57.38
2711;BME280;20721;47.402;8.550;2023-04-08T04:03:41;96331;;;8.69;57.45
2711;BME280;20721;47.402;8.550;2023-04-08T04:04:41;96331;;;8.66;57.62
2711;BME280;20721;47.402;8.550;2023-04-08T04:05:41;96331;;;8.69;57.50
2711;BME280;20721;47.402;8.550;2023-04-08T04:06:41;96331;;;8.64;57.66
2711;BME280;20721;47.402;8.550;2023-04-08T04:07:41;96325;;;8.60;57.69
2711;BME280;20721;47.402;8.550;2023-04-08T04:08:41;96328;;;8.58;57.92
2711;BME280;20721;47.402;8.550;2023-04-08T04:09:41;96328;;;8.62;57.94
2711;BME280;20721;47.402;8.550;2023-04-08T04:10:41;96330;;;8.69;57.88
2711;BME280;20721;47.402;8.550;2023-04-08T04:11:41;96326;;;8.73;57.68
2711;BME280;20721;47.402;8.550;2023-04-08T04:12:41;96329;;;8.77;57.64
2711;BME280;20721;47.402;8.550;2023-04-08T04:13:41;96330;;;8.82;57.76
2711;BME280;20721;47.402;8.550;2023-04-08T04:14:41;96327;;;8.87;57.60
2711;BME280;20721;47.402;8.550;2023-04-08T04:15:41;96328;;;8.91;57.90
2711;BME280;20721;47.402;8.550;2023-04-08T04:16:44;96328;;;8.95;58.21
2711;BME280;20721;47.402;8.550;2023-04-08T04:17:41;96331;;;8.93;57.75
2711;BME280;20721;47.402;8.550;2023-04-08T04:18:41;96326;;;8.95;57.46
2711;BME280;20721;47.402;8.550;2023-04-08T04:19:41;96330;;;8.96;57.65
2711;BME280;20721;47.402;8.550;2023-04-08T04:20:41;96330;;;8.95;57.87
2711;BME280;20721;47.402;8.550;2023-04-08T04:22:41;96333;;;8.92;57.98
2711;BME280;20721;47.402;8.550;2023-04-08T04:25:41;96341;;;8.91;58.89
2711;BME280;20721;47.402;8.550;2023-04-08T04:27:41;96337;;;8.93;59.25
2711;BME280;20721;47.402;8.550;2023-04-08T04:28:41;96338;;;8.96;59.59
2711;BME280;20721;47.402;8.550;2023-04-08T04:30:41;96339;;;8.98;59.55
2711;BME280;20721;47.402;8.550;2023-04-08T04:31:41;96338;;;8.96;59.47
2711;BME280;20721;47.402;8.550;2023-04-08T04:32:41;96340;;;8.98;59.76
2711;BME280;20721;47.402;8.550;2023-04-08T04:35:41;96340;;;8.96;60.12
2711;BME280;20721;47.402;8.550;2023-04-08T04:36:41;96340;;;8.99;60.02
2711;BME280;20721;47.402;8.550;2023-04-08T04:37:41;96343;;;9.01;60.01
2711;BME280;20721;47.402;8.550;2023-04-08T04:38:42;96347;;;9.02;60.06
2711;BME280;20721;47.402;8.550;2023-04-08T04:40:41;96349;;;9.01;60.20
2711;BME280;20721;47.402;8.550;2023-04-08T04:41:43;96347;;;8.99;60.39
2711;BME280;20721;47.402;8.550;2023-04-08T04:42:41;96349;;;8.95;60.36
2711;BME280;20721;47.402;8.550;2023-04-08T04:43:41;96351;;;8.94;60.35
2711;BME280;20721;47.402;8.550;2023-04-08T04:44:41;96352;;;8.96;60.56
2711;BME280;20721;47.402;8.550;2023-04-08T04:45:41;96349;;;8.97;60.31
2711;BME280;20721;47.402;8.550;2023-04-08T04:46:41;96350;;;8.96;60.43
2711;BME280;20721;47.402;8.550;2023-04-08T04:47:41;96352;;;8.98;60.39
2711;BME280;20721;47.402;8.550;2023-04-08T04:48:41;96350;;;8.97;60.49
2711;BME280;20721;47.402;8.550;2023-04-08T04:49:41;96352;;;8.93;60.57
2711;BME280;20721;47.402;8.550;2023-04-08T04:50:41;96353;;;8.92;60.60
2711;BME280;20721;47.402;8.550;2023-04-08T04:51:41;96353;;;8.90;60.74
2711;BME280;20721;47.402;8.550;2023-04-08T04:52:41;96353;;;8.93;60.95
2711;BME280;20721;47.402;8.550;2023-04-08T04:56:41;96358;;;8.92;59.79
2711;BME280;20721;47.402;8.550;2023-04-08T04:57:43;96356;;;8.93;59.65
2711;BME280;20721;47.402;8.550;2023-04-08T04:58:41;96355;;;8.90;59.84
2711;BME280;20721;47.402;8.550;2023-04-08T04:59:41;96353;;;8.86;59.85
2711;BME280;20721;47.402;8.550;2023-04-08T05:00:41;96354;;;8.80;60.07
2711;BME280;20721;47.402;8.550;2023-04-08T05:01:41;96354;;;8.74;60.42
2711;BME280;20721;47.402;8.550;2023-04-08T05:02:41;96355;;;8.70;60.61
2711;BME280;20721;47.402;8.550;2023-04-08T05:03:41;96356;;;8.57;60.63
2711;BME280;20721;47.402;8.550;2023-04-08T05:04:41;96359;;;8.49;60.66
2711;BME280;20721;47.402;8.550;2023-04-08T05:05:41;96360;;;8.43;61.01
2711;BME280;20721;47.402;8.550;2023-04-08T05:07:41;96362;;;8.44;60.93
2711;BME280;20721;47.402;8.550;2023-04-08T05:08:41;96362;;;8.41;60.97
2711;BME280;20721;47.402;8.550;2023-04-08T05:09:41;96367;;;8.36;61.62
2711;BME280;20721;47.402;8.550;2023-04-08T05:10:41;96368;;;8.38;61.67
2711;BME280;20721;47.402;8.550;2023-04-08T05:11:41;96370;;;8.43;61.75
2711;BME280;20721;47.402;8.550;2023-04-08T05:12:41;96366;;;8.46;61.83
2711;BME280;20721;47.402;8.550;2023-04-08T05:13:41;96366;;;8.52;61.89
2711;BME280;20721;47.402;8.550;2023-04-08T05:14:41;96369;;;8.59;61.66
2711;BME280;20721;47.402;8.550;2023-04-08T05:15:41;96373;;;8.64;61.57
2711;BME280;20721;47.402;8.550;2023-04-08T05:16:41;96373;;;8.68;61.37
2711;BME280;20721;47.402;8.550;2023-04-08T05:17:41;96378;;;8.74;61.13
2711;BME280;20721;47.402;8.550;2023-04-08T05:18:41;96383;;;8.79;61.08
2711;BME280;20721;47.402;8.550;2023-04-08T05:19:41;96383;;;8.83;61.08
2711;BME280;20721;47.402;8.550;2023-04-08T05:20:41;96384;;;8.85;60.99
2711;BME280;20721;47.402;8.550;2023-04-08T05:21:41;96384;;;8.87;61.17
2711;BME280;20721;47.402;8.550;2023-04-08T05:22:43;96390;;;8.89;60.95
2711;BME280;20721;47.402;8.550;2023-04-08T05:24:41;96389;;;8.92;60.55
2711;BME280;20721;47.402;8.550;2023-04-08T05:26:41;96392;;;8.93;60.60
2711;BME280;20721;47.402;8.550;2023-04-08T05:29:41;96393;;;8.91;60.24
2711;BME280;20721;47.402;8.550;2023-04-08T05:30:48;96389;;;8.88;60.24
2711;BME280;20721;47.402;8.550;2023-04-08T05:31:41;96391;;;8.85;60.51
2711;BME280;20721;47.402;8.550;2023-04-08T05:32:41;96388;;;8.80;60.27
2711;BME280;20721;47.402;8.550;2023-04-08T05:33:41;96391;;;8.78;60.45
2711;BME280;20721;47.402;8.550;2023-04-08T05:34:41;96391;;;8.75;60.54
2711;BME280;20721;47.402;8.550;2023-04-08T05:35:41;96389;;;8.73;60.66
2711;BME280;20721;47.402;8.550;2023-04-08T05:36:42;96392;;;8.71;60.68
2711;BME280;20721;47.402;8.550;2023-04-08T05:37:41;96388;;;8.68;60.86
2711;BME280;20721;47.402;8.550;2023-04-08T05:38:43;96389;;;8.66;61.06
2711;BME280;20721;47.402;8.550;2023-04-08T05:39:41;96393;;;8.64;61.11
2711;BME280;20721;47.402;8.550;2023-04-08T05:42:41;96389;;;8.66;61.84
2711;BME280;20721;47.402;8.550;2023-04-08T05:43:41;96393;;;8.67;61.29
2711;BME280;20721;47.402;8.550;2023-04-08T05:44:42;96394;;;8.68;61.13
2711;BME280;20721;47.402;8.550;2023-04-08T05:46:41;96395;;;8.69;61.66
2711;BME280;20721;47.402;8.550;2023-04-08T05:48:41;96396;;;8.71;62.08
2711;BME280;20721;47.402;8.550;2023-04-08T05:49:41;96394;;;8.74;61.71
2711;BME280;20721;47.402;8.550;2023-04-08T05:50:42;96398;;;8.79;61.63
2711;BME280;20721;47.402;8.550;2023-04-08T05:51:41;96397;;;8.80;61.61
2711;BME280;20721;47.402;8.550;2023-04-08T05:52:42;96399;;;8.81;61.20
2711;BME280;20721;47.402;8.550;2023-04-08T05:53:41;96399;;;8.84;61.38
2711;BME280;20721;47.402;8.550;2023-04-08T05:54:42;96401;;;8.85;61.25
2711;BME280;20721;47.402;8.550;2023-04-08T05:55:41;96400;;;8.88;61.37
2711;BME280;20721;47.402;8.550;2023-04-08T05:56:41;96401;;;8.91;61.17
2711;BME280;20721;47.402;8.550;2023-04-08T05:57:41;96403;;;8.92;61.14
2711;BME280;20721;47.402;8.550;2023-04-08T05:58:41;96404;;;8.93;61.01
2711;BME280;20721;47.402;8.550;2023-04-08T05:59:41;96404;;;8.94;61.20
2711;BME280;20721;47.402;8.550;2023-04-08T06:00:41;96402;;;8.97;61.08
2711;BME280;20721;47.402;8.550;2023-04-08T06:01:41;96405;;;9.00;61.24
2711;BME280;20721;47.402;8.550;2023-04-08T06:02:42;96409;;;9.04;61.32
2711;BME280;20721;47.402;8.550;2023-04-08T06:03:42;96410;;;9.08;60.96
2711;BME280;20721;47.402;8.550;2023-04-08T06:04:41;96412;;;9.10;60.93
2711;BME280;20721;47.402;8.550;2023-04-08T06:05:41;96411;;;9.12;60.80
2711;BME280;20721;47.402;8.550;2023-04-08T06:06:42;96413;;;9.14;61.01
2711;BME280;20721;47.402;8.550;2023-04-08T06:07:45;96416;;;9.15;61.32
2711;BME280;20721;47.402;8.550;2023-04-08T06:08:41;96418;;;9.17;61.02
2711;BME280;20721;47.402;8.550;2023-04-08T06:11:41;96419;;;9.20;60.18
2711;BME280;20721;47.402;8.550;2023-04-08T06:13:41;96420;;;9.21;60.41
2711;BME280;20721;47.402;8.550;2023-04-08T06:14:41;96419;;;9.22;60.39
2711;BME280;20721;47.402;8.550;2023-04-08T06:15:41;96424;;;9.25;60.16
2711;BME280;20721;47.402;8.550;2023-04-08T06:16:41;96420;;;9.28;59.83
2711;BME280;20721;47.402;8.550;2023-04-08T06:17:41;96422;;;9.31;59.61
2711;BME280;20721;47.402;8.550;2023-04-08T06:18:41;96420;;;9.33;59.59
2711;BME280;20721;47.402;8.550;2023-04-08T06:19:41;96426;;;9.34;58.93
2711;BME280;20721;47.402;8.550;2023-04-08T06:20:41;96425;;;9.35;59.11
2711;BME280;20721;47.402;8.550;2023-04-08T06:21:42;96426;;;9.37;59.26
2711;BME280;20721;47.402;8.550;2023-04-08T06:22:41;96423;;;9.38;59.29
2711;BME280;20721;47.402;8.550;2023-04-08T06:23:41;96418;;;9.41;59.20
2711;BME280;20721;47.402;8.550;2023-04-08T06:24:41;96421;;;9.42;59.18
2711;BME280;20721;47.402;8.550;2023-04-08T06:25:41;96420;;;9.45;59.39
2711;BME280;20721;47.402;8.550;2023-04-08T06:27:41;96418;;;9.51;58.79
2711;BME280;20721;47.402;8.550;2023-04-08T06:28:42;96418;;;9.53;58.59
2711;BME280;20721;47.402;8.550;2023-04-08T06:30:41;96417;;;9.55;58.65
2711;BME280;20721;47.402;8.550;2023-04-08T06:31:41;96415;;;9.56;58.36
2711;BME280;20721;47.402;8.550;2023-04-08T06:32:41;96415;;;9.58;58.54
2711;BME280;20721;47.402;8.550;2023-04-08T06:33:41;96413;;;9.57;58.21
2711;BME280;20721;47.402;8.550;2023-04-08T06:35:41;96416;;;9.58;58.43
2711;BME280;20721;47.402;8.550;2023-04-08T06:37:41;96416;;;9.59;58.49
2711;BME280;20721;47.402;8.550;2023-04-08T06:38:41;96416;;;9.62;58.44
2711;BME280;20721;47.402;8.550;2023-04-08T06:39:41;96420;;;9.61;58.60
2711;BME280;20721;47.402;8.550;2023-04-08T06:40:41;96418;;;9.64;58.40
2711;BME280;20721;47.402;8.550;2023-04-08T06:41:42;96419;;;9.63;58.35
2711;BME280;20721;47.402;8.550;2023-04-08T06:43:41;96420;;;9.62;58.56
2711;BME280;20721;47.402;8.550;2023-04-08T06:44:41;96420;;;9.60;58.28
2711;BME280;20721;47.402;8.550;2023-04-08T06:45:42;96419;;;9.43;57.90
2711;BME280;20721;47.402;8.550;2023-04-08T06:46:41;96420;;;9.39;58.31
2711;BME280;20721;47.402;8.550;2023-04-08T06:47:41;96420;;;9.36;58.46
2711;BME280;20721;47.402;8.550;2023-04-08T06:48:41;96421;;;9.37;58.52
2711;BME280;20721;47.402;8.550;2023-04-08T06:49:42;96422;;;9.39;58.63
2711;BME280;20721;47.402;8.550;2023-04-08T06:50:41;96422;;;9.42;58.47
2711;BME280;20721;47.402;8.550;2023-04-08T06:52:41;96421;;;9.45;58.34
2711;BME280;20721;47.402;8.550;2023-04-08T06:53:41;96418;;;9.48;58.10
2711;BME280;20721;47.402;8.550;2023-04-08T06:54:41;96420;;;9.53;58.15
2711;BME280;20721;47.402;8.550;2023-04-08T06:55:41;96417;;;9.58;58.08
2711;BME280;20721;47.402;8.550;2023-04-08T06:56:41;96418;;;9.64;57.97
2711;BME280;20721;47.402;8.550;2023-04-08T06:57:41;96416;;;9.68;57.90
2711;BME280;20721;47.402;8.550;2023-04-08T06:58:41;96421;;;9.74;57.91
2711;BME280;20721;47.402;8.550;2023-04-08T06:59:41;96419;;;9.80;58.02
2711;BME280;20721;47.402;8.550;2023-04-08T07:00:41;96420;;;9.85;57.70
2711;BME280;20721;47.402;8.550;2023-04-08T07:01:42;96422;;;9.92;57.68